createdAt,value
2022-11-16T00:00:41.150Z,1068.97
2022-11-16T00:02:48.415Z,1066.51
2022-11-16T00:04:56.809Z,1061.83
2022-11-16T00:07:03.526Z,1048.09
2022-11-16T00:09:27.321Z,1053.76
2022-11-16T00:11:33.145Z,1052.38
2022-11-16T00:13:41.540Z,1037.05
2022-11-16T00:15:58.676Z,1062.46
2022-11-16T00:20:24.076Z,1024.22
2022-11-16T00:22:30.779Z,1052.86
2022-11-16T00:24:37.305Z,1049.58
2022-11-16T00:26:43.388Z,1024.24
2022-11-16T00:28:50.967Z,1086.15
2022-11-16T00:31:02.675Z,1100.01
2022-11-16T00:33:10.924Z,1086.45
2022-11-16T00:35:17.608Z,1048.72
2022-11-16T00:37:26.024Z,1052.79
2022-11-16T00:39:31.895Z,1026.04
2022-11-16T00:41:38.438Z,1013.93
2022-11-16T00:43:44.342Z,1005.72
2022-11-16T00:45:50.495Z,993.78
2022-11-16T00:48:00.467Z,1002.36
2022-11-16T00:50:08.806Z,994.13
2022-11-16T00:52:14.514Z,976.54
2022-11-16T00:54:23.636Z,935.39
2022-11-16T00:56:29.578Z,956.23
2022-11-16T00:58:35.724Z,956.29
2022-11-16T01:00:47.487Z,944.86
2022-11-16T01:02:54.753Z,935.09
2022-11-16T01:05:00.812Z,899.91
2022-11-16T01:07:09.268Z,901.97
2022-11-16T01:09:15.054Z,901.59
2022-11-16T01:11:36.052Z,933.17
2022-11-16T01:13:42.635Z,936.88
2022-11-16T01:15:51.626Z,926.12
2022-11-16T01:18:00.084Z,956.04
2022-11-16T01:20:11.286Z,933.64
2022-11-16T01:22:17.033Z,894.26
2022-11-16T01:24:22.983Z,882.22
2022-11-16T01:26:32.490Z,887.93
2022-11-16T01:28:38.509Z,895.91
2022-11-16T01:30:51.510Z,882.56
2022-11-16T01:32:58.128Z,881.55
2022-11-16T01:35:07.173Z,892.30
2022-11-16T01:37:13.872Z,922.45
2022-11-16T01:39:22.307Z,897.17
2022-11-16T01:41:35.451Z,873.89
2022-11-16T01:44:01.902Z,885.03
2022-11-16T01:46:14.558Z,915.45
2022-11-16T01:48:29.028Z,905.81
2022-11-16T01:50:35.471Z,901.85
2022-11-16T01:52:50.636Z,897.13
2022-11-16T01:54:56.154Z,915.80
2022-11-16T01:57:14.604Z,913.87
2022-11-16T01:59:29.647Z,907.03
2022-11-16T02:01:36.492Z,887.94
2022-11-16T02:03:44.463Z,913.77
2022-11-16T02:06:17.939Z,903.56
2022-11-16T02:09:04.862Z,901.61
2022-11-16T02:11:48.262Z,892.70
2022-11-16T02:14:13.908Z,927.87
2022-11-16T02:16:38.814Z,918.08
2022-11-16T02:19:02.895Z,931.20
2022-11-16T02:21:32.902Z,933.68
2022-11-16T02:24:22.838Z,907.08
2022-11-16T02:27:14.408Z,927.42
2022-11-16T02:29:35.646Z,853.70
2022-11-16T02:31:52.568Z,876.67
2022-11-16T02:34:03.704Z,855.26
2022-11-16T02:36:18.627Z,856.98
2022-11-16T02:38:32.828Z,873.50
2022-11-16T02:40:47.963Z,858.51
2022-11-16T02:43:10.281Z,860.04
2022-11-16T02:45:27.416Z,857.09
2022-11-16T02:47:40.025Z,855.70
2022-11-16T02:49:58.611Z,866.64
2022-11-16T02:52:07.231Z,857.66
2022-11-16T02:54:19.641Z,851.64
2022-11-16T02:56:31.521Z,860.12
2022-11-16T02:58:37.300Z,869.73
2022-11-16T03:00:59.228Z,886.15
2022-11-16T03:03:28.700Z,865.68
2022-11-16T03:05:43.546Z,838.25
2022-11-16T03:08:12.048Z,802.60
2022-11-16T03:10:35.489Z,798.48
2022-11-16T03:12:46.200Z,811.05
2022-11-16T03:14:59.745Z,759.00
2022-11-16T03:17:20.817Z,752.00
